Time;durP1;ratioP1;P1;durP2;ratioP2;P2;SDS_P1;SDS_P2;PMS_P1;PMS_P2;Temp;Humidity;BMP_temperature;BMP_pressure;BME280_temperature;BME280_humidity;BME280_pressure;Samples;Min_cycle;Max_cycle;Signal;HPM_P1;HPM_P2
2022/06/02 00:00:46;;;;;;;3.37;2.73;;;;;9.70;101300.00;;;;4998127;28;20254;-73
2022/06/02 00:03:41;;;;;;;4.20;3.10;;;;;9.70;101299.00;;;;4999869;28;20717;-73
2022/06/02 00:06:42;;;;;;;5.80;2.53;;;;;9.70;101290.00;;;;4998539;28;20376;-73
2022/06/02 00:09:42;;;;;;;3.17;2.23;;;;;9.70;101306.00;;;;4993906;28;20233;-74
2022/06/02 00:12:32;;;;;;;3.23;2.70;;;;;9.80;101306.00;;;;4996282;28;20247;-74
2022/06/02 00:15:23;;;;;;;3.47;2.30;;;;;9.70;101300.00;;;;4992461;28;20231;-74
2022/06/02 00:18:17;;;;;;;2.87;2.17;;;;;9.60;101283.00;;;;4985662;28;20230;-72
2022/06/02 00:21:18;;;;;;;3.47;2.50;;;;;9.60;101322.00;;;;4995451;28;20295;-72
2022/06/02 00:24:13;;;;;;;3.23;2.50;;;;;9.60;101313.00;;;;4986184;28;20229;-76
2022/06/02 00:27:05;;;;;;;3.13;2.70;;;;;9.60;101313.00;;;;4993682;28;20612;-70
2022/06/02 00:30:03;;;;;;;3.27;2.53;;;;;9.60;101313.00;;;;4996284;28;20254;-72
2022/06/02 00:32:56;;;;;;;2.70;2.40;;;;;9.50;101326.00;;;;5002243;28;20625;-73
2022/06/02 00:35:52;;;;;;;2.93;2.37;;;;;9.40;101322.00;;;;4994350;28;20258;-73
2022/06/02 00:38:40;;;;;;;2.97;2.30;;;;;9.40;101321.00;;;;4997869;28;20238;-73
2022/06/02 00:41:38;;;;;;;3.77;2.60;;;;;9.20;101328.00;;;;4995535;28;20242;-73
2022/06/02 00:44:32;;;;;;;3.83;2.70;;;;;9.20;101333.00;;;;5000888;28;20227;-75
2022/06/02 00:47:42;;;;;;;3.40;2.70;;;;;9.20;101328.00;;;;4999096;28;20226;-70
2022/06/02 00:50:46;;;;;;;3.70;2.60;;;;;9.20;101338.00;;;;5001194;28;20241;-73
2022/06/02 00:53:41;;;;;;;4.40;2.80;;;;;9.10;101331.00;;;;4999980;28;20373;-72
2022/06/02 01:00:12;;;;;;;3.40;2.47;;;;;9.10;101343.00;;;;4919632;29;20645;-72
2022/06/02 01:03:08;;;;;;;4.33;2.97;;;;;9.20;101329.00;;;;4995461;28;20592;-72
2022/06/02 01:06:12;;;;;;;3.97;2.83;;;;;9.20;101338.00;;;;5002036;28;20242;-72
2022/06/02 01:09:13;;;;;;;3.33;2.53;;;;;9.00;101349.00;;;;5004525;28;20261;-72
2022/06/02 01:12:14;;;;;;;3.70;2.80;;;;;9.00;101341.00;;;;5006739;28;20260;-73
2022/06/02 01:15:11;;;;;;;4.30;3.03;;;;;9.10;101345.00;;;;5007119;28;20230;-71
2022/06/02 01:18:07;;;;;;;7.20;3.00;;;;;9.00;101351.00;;;;5001914;28;20726;-73
2022/06/02 01:21:06;;;;;;;4.57;3.10;;;;;8.80;101359.00;;;;4991791;28;20871;-72
2022/06/02 01:24:24;;;;;;;5.87;3.03;;;;;8.80;101356.00;;;;4996814;28;20227;-73
2022/06/02 01:27:26;;;;;;;5.00;3.43;;;;;8.80;101351.00;;;;4997926;28;20234;-73
2022/06/02 01:30:47;;;;;;;4.63;2.90;;;;;8.70;101342.00;;;;4993918;28;20611;-73
2022/06/02 01:33:46;;;;;;;5.03;3.10;;;;;8.70;101344.00;;;;4995329;28;20230;-72
2022/06/02 01:36:41;;;;;;;5.83;3.07;;;;;8.60;101348.00;;;;5005514;28;20329;-72
2022/06/02 01:39:42;;;;;;;4.77;3.23;;;;;8.60;101341.00;;;;4997968;28;20242;-69
2022/06/02 01:42:36;;;;;;;3.83;2.80;;;;;8.50;101343.00;;;;5002594;28;20252;-72
2022/06/02 01:45:38;;;;;;;4.10;3.10;;;;;8.60;101335.00;;;;5000375;28;20726;-74
2022/06/02 01:48:31;;;;;;;4.57;3.03;;;;;8.50;101346.00;;;;5005485;28;20698;-76
2022/06/02 01:51:27;;;;;;;4.80;3.40;;;;;8.50;101356.00;;;;5005299;28;20772;-72
2022/06/02 01:54:25;;;;;;;4.63;3.20;;;;;8.60;101348.00;;;;4994394;28;20299;-70
2022/06/02 01:57:30;;;;;;;4.80;3.53;;;;;8.50;101348.00;;;;4998696;28;20237;-73
2022/06/02 02:00:20;;;;;;;6.73;3.83;;;;;8.50;101352.00;;;;5005017;28;20241;-73
2022/06/02 02:03:18;;;;;;;6.30;3.87;;;;;8.40;101348.00;;;;5005818;28;20257;-72
2022/06/02 02:06:13;;;;;;;4.97;4.00;;;;;8.40;101346.00;;;;4999374;28;20234;-73
2022/06/02 02:09:07;;;;;;;5.80;3.60;;;;;8.30;101356.00;;;;5003404;28;20304;-71
2022/06/02 02:11:55;;;;;;;6.17;3.50;;;;;8.30;101351.00;;;;5004965;28;20323;-73
2022/06/02 02:14:57;;;;;;;5.23;3.70;;;;;8.20;101344.00;;;;5004053;28;20284;-73
2022/06/02 02:18:03;;;;;;;5.13;3.50;;;;;8.10;101364.00;;;;4995278;28;20313;-73
2022/06/02 02:21:05;;;;;;;5.13;3.63;;;;;8.20;101350.00;;;;5005978;28;20430;-72
2022/06/02 02:24:03;;;;;;;5.77;3.93;;;;;8.10;101346.00;;;;5002722;28;20736;-76
2022/06/02 02:26:57;;;;;;;5.70;3.60;;;;;8.10;101343.00;;;;4994237;28;20250;-74
2022/06/02 02:29:49;;;;;;;5.60;3.80;;;;;8.10;101352.00;;;;5004949;28;20943;-70
2022/06/02 02:32:44;;;;;;;6.00;3.83;;;;;8.00;101358.00;;;;5004088;28;20258;-70
2022/06/02 02:35:40;;;;;;;5.77;3.97;;;;;7.90;101341.00;;;;4999426;28;20258;-73
2022/06/02 02:38:36;;;;;;;7.00;4.27;;;;;7.90;101345.00;;;;5005353;28;20237;-73
2022/06/02 02:41:28;;;;;;;5.87;4.03;;;;;7.80;101344.00;;;;4996151;28;20230;-72
2022/06/02 02:44:23;;;;;;;5.47;4.07;;;;;7.80;101342.00;;;;5003105;28;20234;-73
2022/06/02 02:47:17;;;;;;;8.10;4.50;;;;;7.80;101342.00;;;;5001412;28;20709;-71
2022/06/02 02:50:07;;;;;;;6.13;4.33;;;;;7.80;101348.00;;;;5002536;28;20714;-72
2022/06/02 02:52:59;;;;;;;6.20;4.30;;;;;7.70;101349.00;;;;5005558;28;20296;-73
2022/06/02 02:55:52;;;;;;;8.50;4.80;;;;;7.70;101356.00;;;;5001855;28;20233;-72
2022/06/02 02:58:43;;;;;;;8.17;4.70;;;;;7.70;101348.00;;;;5004180;28;20272;-71
2022/06/02 03:01:41;;;;;;;5.93;4.17;;;;;7.70;101355.00;;;;4993537;28;20244;-73
2022/06/02 03:04:37;;;;;;;5.27;3.80;;;;;7.60;101352.00;;;;5004727;28;20226;-73
2022/06/02 03:07:24;;;;;;;6.80;4.27;;;;;7.60;101366.00;;;;4991632;28;20231;-71
2022/06/02 03:10:17;;;;;;;5.80;3.97;;;;;7.50;101362.00;;;;5001584;28;20238;-71
2022/06/02 03:13:24;;;;;;;6.17;3.73;;;;;7.60;101360.00;;;;4999172;28;20293;-70
2022/06/02 03:16:13;;;;;;;7.67;4.33;;;;;7.60;101357.00;;;;4999693;28;20726;-71
2022/06/02 03:19:14;;;;;;;5.83;4.13;;;;;7.50;101365.00;;;;5004868;28;20309;-71
2022/06/02 03:22:13;;;;;;;7.73;4.33;;;;;7.50;101371.00;;;;5004595;28;20229;-72
2022/06/02 03:25:09;;;;;;;6.63;4.70;;;;;7.50;101380.00;;;;5002295;28;20758;-71
2022/06/02 03:28:09;;;;;;;6.73;4.87;;;;;7.40;101381.00;;;;5004980;28;20222;-73
2022/06/02 03:31:05;;;;;;;7.07;4.37;;;;;7.40;101384.00;;;;4994787;28;20257;-76
2022/06/02 03:34:02;;;;;;;8.40;5.57;;;;;7.40;101392.00;;;;4999824;28;20234;-72
2022/06/02 03:37:15;;;;;;;6.40;4.50;;;;;7.40;101384.00;;;;5001802;28;20242;-75
2022/06/02 03:40:18;;;;;;;7.40;4.73;;;;;7.50;101383.00;;;;5000086;28;20683;-72
2022/06/02 03:43:14;;;;;;;8.47;4.80;;;;;7.40;101399.00;;;;5003256;28;20595;-72
2022/06/02 03:46:14;;;;;;;8.27;4.97;;;;;7.40;101397.00;;;;4991709;28;20250;-71
2022/06/02 03:49:13;;;;;;;9.50;4.70;;;;;7.50;101393.00;;;;5000608;28;20229;-70
2022/06/02 03:52:13;;;;;;;8.70;5.00;;;;;7.40;101409.00;;;;5004258;28;20297;-72
2022/06/02 03:55:13;;;;;;;9.23;4.70;;;;;7.50;101405.00;;;;4999999;28;20241;-72
2022/06/02 03:58:10;;;;;;;8.27;4.47;;;;;7.60;101415.00;;;;4993967;28;20366;-72
2022/06/02 04:01:00;;;;;;;7.10;4.87;;;;;7.60;101412.00;;;;5000889;28;20358;-72
2022/06/02 04:04:02;;;;;;;8.03;4.70;;;;;7.60;101429.00;;;;4997706;28;20253;-75
2022/06/02 04:07:02;;;;;;;5.83;3.70;;;;;7.70;101417.00;;;;5004454;28;20244;-72
2022/06/02 04:09:58;;;;;;;7.00;4.43;;;;;7.70;101433.00;;;;5001989;28;20929;-72
2022/06/02 04:16:38;;;;;;;8.53;5.30;;;;;7.80;101434.00;;;;5003789;28;20893;-74
2022/06/02 04:23:02;;;;;;;9.87;5.03;;;;;7.90;101440.00;;;;4998673;28;20293;-70
2022/06/02 04:25:56;;;;;;;7.03;4.43;;;;;7.90;101448.00;;;;4999791;28;20252;-73
2022/06/02 04:28:51;;;;;;;8.27;4.37;;;;;8.00;101451.00;;;;5000181;28;20233;-72
2022/06/02 04:31:52;;;;;;;10.10;5.07;;;;;8.20;101450.00;;;;4999583;28;20301;-73
2022/06/02 04:34:48;;;;;;;10.50;5.60;;;;;8.20;101453.00;;;;4999596;28;20234;-73
2022/06/02 04:37:41;;;;;;;8.20;4.83;;;;;8.30;101455.00;;;;4993348;28;20229;-75
2022/06/02 04:40:39;;;;;;;9.60;5.43;;;;;8.30;101457.00;;;;4994623;28;20293;-73
2022/06/02 04:43:35;;;;;;;7.43;4.47;;;;;8.40;101465.00;;;;5004673;28;20687;-73
2022/06/02 04:46:41;;;;;;;7.23;4.80;;;;;8.50;101468.00;;;;5003460;28;20248;-72
2022/06/02 04:49:40;;;;;;;9.23;5.20;;;;;8.60;101469.00;;;;4995748;28;20348;-71
2022/06/02 04:52:35;;;;;;;8.00;4.93;;;;;8.70;101467.00;;;;4999454;28;20300;-72
2022/06/02 04:55:32;;;;;;;7.13;4.70;;;;;8.70;101464.00;;;;5001756;28;20241;-73
2022/06/02 04:58:25;;;;;;;8.37;5.20;;;;;8.80;101474.00;;;;5008111;28;20233;-72
2022/06/02 05:01:27;;;;;;;8.83;5.10;;;;;9.00;101473.00;;;;5004425;28;20239;-73
2022/06/02 05:04:27;;;;;;;9.13;5.40;;;;;9.10;101477.00;;;;4999453;28;20975;-73
2022/06/02 05:07:22;;;;;;;10.23;5.93;;;;;9.20;101487.00;;;;5005727;28;20799;-73
2022/06/02 05:10:21;;;;;;;8.20;5.40;;;;;9.30;101484.00;;;;5000835;28;20234;-74
2022/06/02 05:13:15;;;;;;;8.83;5.33;;;;;9.40;101482.00;;;;5005737;28;20330;-73
2022/06/02 05:16:23;;;;;;;9.57;6.20;;;;;9.50;101487.00;;;;5006831;28;20708;-73
2022/06/02 05:19:35;;;;;;;9.77;5.60;;;;;9.60;101485.00;;;;4998871;28;20329;-72
2022/06/02 05:22:48;;;;;;;10.60;6.37;;;;;9.70;101491.00;;;;4998007;28;20243;-75
2022/06/02 05:26:05;;;;;;;10.97;6.30;;;;;9.80;101486.00;;;;5007595;28;20771;-72
2022/06/02 05:29:11;;;;;;;12.27;7.23;;;;;9.90;101491.00;;;;5000797;28;20607;-73
2022/06/02 05:32:34;;;;;;;14.73;7.80;;;;;10.10;101495.00;;;;5003467;28;20286;-74
2022/06/02 05:35:41;;;;;;;11.50;7.67;;;;;10.10;101505.00;;;;4991569;28;20243;-73
2022/06/02 05:38:50;;;;;;;12.93;7.10;;;;;10.30;101512.00;;;;5007206;28;20225;-74
2022/06/02 05:41:57;;;;;;;13.63;8.17;;;;;10.40;101511.00;;;;5004946;28;20232;-73
2022/06/02 05:45:17;;;;;;;12.17;7.90;;;;;10.40;101511.00;;;;5002922;28;20225;-73
2022/06/02 05:48:24;;;;;;;13.37;7.83;;;;;10.60;101521.00;;;;4996248;28;20230;-71
2022/06/02 05:51:19;;;;;;;12.83;8.17;;;;;10.70;101517.00;;;;5003243;28;20235;-73
2022/06/02 05:54:25;;;;;;;16.50;8.33;;;;;10.80;101521.00;;;;5002252;28;20616;-73
2022/06/02 05:57:32;;;;;;;12.47;7.50;;;;;10.90;101530.00;;;;5006631;28;20240;-71
2022/06/02 06:00:32;;;;;;;14.00;8.43;;;;;11.00;101522.00;;;;5005384;28;20602;-72
2022/06/02 06:03:43;;;;;;;13.17;8.20;;;;;11.10;101531.00;;;;5005659;28;20236;-73
2022/06/02 06:06:33;;;;;;;14.37;8.60;;;;;11.20;101523.00;;;;5006237;28;24485;-74
2022/06/02 06:09:30;;;;;;;13.70;8.00;;;;;11.20;101517.00;;;;5000460;28;20232;-74
2022/06/02 06:12:39;;;;;;;18.43;8.47;;;;;11.40;101525.00;;;;5002769;28;20298;-74
2022/06/02 06:15:39;;;;;;;15.43;8.53;;;;;11.40;101519.00;;;;5005440;28;20242;-74
2022/06/02 06:18:36;;;;;;;12.90;8.83;;;;;11.50;101518.00;;;;4997574;28;21486;-74
2022/06/02 06:21:40;;;;;;;14.53;8.80;;;;;11.60;101524.00;;;;5004397;28;20772;-73
2022/06/02 06:24:53;;;;;;;13.73;8.13;;;;;11.70;101528.00;;;;5006392;28;21003;-73
2022/06/02 06:27:51;;;;;;;12.13;7.43;;;;;11.60;101526.00;;;;5002227;28;20280;-70
2022/06/02 06:30:56;;;;;;;12.73;7.93;;;;;11.80;101522.00;;;;4996285;28;20246;-74
2022/06/02 06:33:56;;;;;;;16.73;8.93;;;;;11.90;101526.00;;;;5003893;28;20261;-72
2022/06/02 06:37:18;;;;;;;13.07;7.90;;;;;11.90;101531.00;;;;4999577;28;20373;-73
2022/06/02 06:40:18;;;;;;;12.97;7.90;;;;;12.00;101526.00;;;;5001653;28;20281;-73
2022/06/02 06:43:15;;;;;;;15.60;7.63;;;;;12.10;101526.00;;;;5002391;28;20226;-72
2022/06/02 06:46:09;;;;;;;11.73;7.63;;;;;12.30;101530.00;;;;5000508;28;20246;-74
2022/06/02 06:49:03;;;;;;;12.13;7.80;;;;;12.50;101534.00;;;;5000995;28;20265;-74
2022/06/02 06:52:12;;;;;;;13.07;7.67;;;;;12.70;101534.00;;;;4997084;28;20234;-75
2022/06/02 06:55:06;;;;;;;12.57;8.00;;;;;13.00;101536.00;;;;4996065;28;20367;-74
2022/06/02 06:58:04;;;;;;;13.53;7.40;;;;;13.20;101554.00;;;;5001083;28;20234;-74
2022/06/02 07:00:57;;;;;;;12.07;7.87;;;;;13.40;101549.00;;;;5001370;28;20234;-74
2022/06/02 07:03:58;;;;;;;13.97;7.13;;;;;13.60;101556.00;;;;4999327;28;20234;-75
2022/06/02 07:07:08;;;;;;;11.77;7.40;;;;;13.80;101553.00;;;;4999696;28;20257;-74
2022/06/02 07:10:01;;;;;;;10.43;6.07;;;;;14.00;101552.00;;;;5003696;28;20229;-74
2022/06/02 07:12:53;;;;;;;10.33;6.73;;;;;14.10;101545.00;;;;4997604;28;20237;-75
2022/06/02 07:15:46;;;;;;;11.73;7.00;;;;;14.10;101547.00;;;;4995018;28;20241;-73
2022/06/02 07:18:44;;;;;;;12.87;7.00;;;;;14.20;101564.00;;;;4999024;28;20230;-76
2022/06/02 07:21:35;;;;;;;10.77;6.83;;;;;14.60;101556.00;;;;4998135;28;20238;-73
2022/06/02 07:24:34;;;;;;;8.93;5.87;;;;;14.50;101555.00;;;;5002231;28;20289;-73
2022/06/02 07:27:31;;;;;;;10.80;6.80;;;;;14.40;101560.00;;;;5005027;28;20230;-74
2022/06/02 07:30:31;;;;;;;9.53;6.80;;;;;14.50;101564.00;;;;5001947;28;20234;-73
2022/06/02 07:33:29;;;;;;;9.60;6.10;;;;;14.60;101556.00;;;;5002994;28;20229;-70
2022/06/02 07:36:44;;;;;;;11.70;6.97;;;;;14.30;101575.00;;;;5002251;28;20362;-75
2022/06/02 07:40:06;;;;;;;9.50;5.87;;;;;14.10;101574.00;;;;4998679;28;20234;-74
2022/06/02 07:43:34;;;;;;;7.83;5.37;;;;;14.10;101591.00;;;;4997637;28;20241;-74
2022/06/02 07:46:49;;;;;;;10.23;6.33;;;;;14.00;101578.00;;;;5001804;28;20241;-74
2022/06/02 07:49:54;;;;;;;8.00;5.50;;;;;14.00;101577.00;;;;5005203;28;20615;-75
2022/06/02 07:52:50;;;;;;;8.63;5.43;;;;;13.90;101591.00;;;;4996554;28;20233;-74
2022/06/02 07:55:49;;;;;;;7.73;5.27;;;;;13.90;101585.00;;;;4997152;28;20258;-73
2022/06/02 07:58:44;;;;;;;9.07;4.90;;;;;13.90;101590.00;;;;5004786;28;20304;-73
2022/06/02 08:01:55;;;;;;;6.63;4.40;;;;;14.20;101584.00;;;;4994869;28;20317;-73
2022/06/02 08:04:51;;;;;;;6.93;5.00;;;;;14.70;101593.00;;;;4996691;28;20223;-73
2022/06/02 08:07:43;;;;;;;7.87;5.00;;;;;15.10;101591.00;;;;5003575;28;20892;-74
2022/06/02 08:10:45;;;;;;;7.70;4.47;;;;;15.20;101593.00;;;;4999342;28;20313;-75
2022/06/02 08:13:40;;;;;;;5.47;4.40;;;;;15.50;101588.00;;;;5003809;28;20241;-73
2022/06/02 08:16:32;;;;;;;7.50;5.20;;;;;15.80;101596.00;;;;4997565;28;20326;-74
2022/06/02 08:19:28;;;;;;;5.90;4.60;;;;;16.10;101593.00;;;;5000794;28;20231;-75
2022/06/02 08:22:24;;;;;;;5.63;3.83;;;;;16.40;101592.00;;;;4997180;28;20260;-73
2022/06/02 08:25:12;;;;;;;6.53;4.00;;;;;16.60;101595.00;;;;5003237;28;20752;-72
2022/06/02 08:28:14;;;;;;;5.80;4.40;;;;;16.70;101591.00;;;;4996647;28;20239;-74
2022/06/02 08:31:11;;;;;;;6.67;4.37;;;;;16.40;101593.00;;;;4997881;28;20318;-73
2022/06/02 08:34:07;;;;;;;4.77;3.73;;;;;16.10;101601.00;;;;5000541;28;20608;-72
2022/06/02 08:37:02;;;;;;;3.70;3.30;;;;;15.80;101604.00;;;;4994546;28;20845;-74
2022/06/02 08:40:02;;;;;;;4.70;3.33;;;;;15.50;101606.00;;;;4998763;28;20289;-74
2022/06/02 08:43:26;;;;;;;5.73;3.20;;;;;15.30;101617.00;;;;4999674;28;20235;-75
2022/06/02 08:46:35;;;;;;;5.07;3.77;;;;;15.10;101612.00;;;;5003861;28;20294;-74
2022/06/02 08:49:50;;;;;;;4.37;3.57;;;;;15.00;101616.00;;;;5005576;28;21028;-75
2022/06/02 08:53:15;;;;;;;4.17;3.20;;;;;15.40;101615.00;;;;5007812;28;20231;-75
2022/06/02 08:56:33;;;;;;;5.13;3.80;;;;;16.00;101614.00;;;;5006075;28;20239;-74
2022/06/02 08:59:55;;;;;;;5.03;3.53;;;;;16.30;101607.00;;;;5003934;28;20227;-72
2022/06/02 09:03:21;;;;;;;6.60;4.10;;;;;17.20;101614.00;;;;5029837;28;20228;-73
2022/06/02 09:06:32;;;;;;;5.27;3.70;;;;;17.60;101625.00;;;;5013552;28;20230;-73
2022/06/02 09:09:45;;;;;;;4.27;3.27;;;;;17.90;101621.00;;;;5013331;28;20241;-71
2022/06/02 09:12:54;;;;;;;5.23;3.50;;;;;18.40;101615.00;;;;5015507;28;20240;-70
2022/06/02 09:16:05;;;;;;;3.77;2.83;;;;;18.60;101615.00;;;;5007791;28;20240;-71
2022/06/02 09:19:05;;;;;;;3.83;3.23;;;;;18.90;101618.00;;;;5019981;28;20254;-70
2022/06/02 09:22:10;;;;;;;7.20;3.47;;;;;19.00;101622.00;;;;5017990;28;20210;-70
2022/06/02 09:25:08;;;;;;;4.23;3.30;;;;;19.10;101618.00;;;;5023289;28;20250;-70
2022/06/02 09:28:32;;;;;;;5.13;2.50;;;;;19.20;101621.00;;;;5001314;28;20242;-68
2022/06/02 09:31:57;;;;;;;4.67;2.80;;;;;19.20;101626.00;;;;4999880;28;20738;-71
2022/06/02 09:35:13;;;;;;;3.57;3.13;;;;;18.70;101624.00;;;;4995986;28;20277;-70
2022/06/02 09:38:32;;;;;;;3.90;2.73;;;;;18.20;101636.00;;;;4997373;28;20290;-70
2022/06/02 09:41:40;;;;;;;3.57;2.63;;;;;18.00;101636.00;;;;4995680;28;21519;-66
2022/06/02 09:44:28;;;;;;;3.43;2.63;;;;;17.60;101641.00;;;;4995144;28;20339;-70
2022/06/02 09:47:46;;;;;;;4.07;3.03;;;;;17.40;101635.00;;;;4998800;28;20238;-70
2022/06/02 09:50:57;;;;;;;2.77;2.50;;;;;17.20;101629.00;;;;4995144;28;20226;-71
2022/06/02 09:54:17;;;;;;;4.30;3.20;;;;;17.10;101627.00;;;;4995670;28;20361;-73
2022/06/02 10:01:05;;;;;;;2.87;2.67;;;;;18.20;101635.00;;;;4988357;28;20234;-72
2022/06/02 10:04:34;;;;;;;4.17;2.50;;;;;18.90;101618.00;;;;4996027;28;20226;-73
2022/06/02 10:07:53;;;;;;;4.27;3.07;;;;;19.30;101625.00;;;;4997483;28;20253;-75
2022/06/02 10:10:51;;;;;;;6.87;3.87;;;;;19.70;101631.00;;;;5002911;28;20927;-71
2022/06/02 10:14:07;;;;;;;3.70;3.20;;;;;19.60;101621.00;;;;5006169;28;20257;-72
2022/06/02 10:17:26;;;;;;;3.87;2.67;;;;;19.70;101614.00;;;;5000118;28;20249;-70
2022/06/02 10:20:31;;;;;;;4.00;2.67;;;;;20.10;101623.00;;;;5000046;28;20234;-71
2022/06/02 10:23:50;;;;;;;3.33;2.90;;;;;20.40;101623.00;;;;4998576;28;20734;-72
2022/06/02 10:26:48;;;;;;;4.23;2.50;;;;;20.60;101629.00;;;;5004414;28;20306;-71
2022/06/02 10:30:20;;;;;;;2.63;2.20;;;;;20.70;101622.00;;;;5004274;28;20729;-73
2022/06/02 10:33:41;;;;;;;3.80;3.20;;;;;21.10;101619.00;;;;4951722;28;20237;-74
2022/06/02 10:37:03;;;;;;;2.97;2.47;;;;;21.50;101619.00;;;;5005072;28;20742;-74
2022/06/02 10:40:14;;;;;;;4.43;3.13;;;;;21.70;101625.00;;;;4994542;28;20242;-74
2022/06/02 10:43:45;;;;;;;3.67;2.73;;;;;21.50;101627.00;;;;4997090;28;21304;-71
2022/06/02 10:47:18;;;;;;;3.33;2.50;;;;;21.60;101625.00;;;;4997737;28;20274;-73
2022/06/02 10:50:22;;;;;;;3.27;2.70;;;;;21.50;101615.00;;;;5002728;28;20228;-75
2022/06/02 10:53:48;;;;;;;2.97;2.30;;;;;21.60;101622.00;;;;5001713;28;20282;-74
2022/06/02 10:57:04;;;;;;;3.17;2.40;;;;;20.60;101609.00;;;;5004202;28;20239;-70
2022/06/02 11:00:05;;;;;;;5.17;3.37;;;;;20.00;101616.00;;;;4994414;28;20227;-65
2022/06/02 11:03:25;;;;;;;2.73;2.40;;;;;19.70;101608.00;;;;4999555;28;22425;-69
2022/06/02 11:06:52;;;;;;;4.03;2.67;;;;;19.50;101618.00;;;;4999276;28;20239;-69
2022/06/02 11:10:08;;;;;;;7.33;3.23;;;;;20.40;101616.00;;;;4991531;28;20722;-69
2022/06/02 11:13:25;;;;;;;3.90;2.53;;;;;20.90;101624.00;;;;5000880;28;20738;-70
2022/06/02 11:16:41;;;;;;;3.20;2.90;;;;;21.50;101594.00;;;;5000039;28;20241;-72
2022/06/02 11:20:13;;;;;;;3.00;2.60;;;;;21.20;101613.00;;;;5005078;28;20825;-66
2022/06/02 11:23:30;;;;;;;5.27;2.93;;;;;20.70;101615.00;;;;4995760;28;20233;-70
2022/06/02 11:26:49;;;;;;;2.97;2.60;;;;;20.30;101604.00;;;;4996015;28;20249;-72
2022/06/02 11:30:03;;;;;;;3.83;2.93;;;;;20.00;101616.00;;;;5001665;28;20286;-71
2022/06/02 11:33:14;;;;;;;3.10;2.73;;;;;20.30;101604.00;;;;4997974;28;20226;-70
2022/06/02 11:36:25;;;;;;;3.50;2.40;;;;;20.60;101614.00;;;;4993367;28;20230;-70
2022/06/02 11:39:44;;;;;;;5.50;2.50;;;;;20.90;101601.00;;;;4996807;28;20235;-70
2022/06/02 11:42:46;;;;;;;3.37;2.23;;;;;21.30;101585.00;;;;5001816;28;21246;-69
2022/06/02 11:46:16;;;;;;;4.07;2.40;;;;;21.50;101591.00;;;;4998505;28;20414;-70
2022/06/02 11:49:38;;;;;;;2.90;2.60;;;;;21.40;101593.00;;;;4923884;29;20334;-70
2022/06/02 11:52:43;;;;;;;2.20;2.00;;;;;21.60;101579.00;;;;4998405;28;20227;-71
2022/06/02 11:55:36;;;;;;;3.00;2.00;;;;;22.00;101584.00;;;;4998422;28;20436;-72
2022/06/02 11:58:48;;;;;;;2.60;2.40;;;;;22.20;101588.00;;;;4999241;28;20241;-71
2022/06/02 12:02:07;;;;;;;2.57;2.17;;;;;22.60;101571.00;;;;4994576;28;20233;-71
2022/06/02 12:05:18;;;;;;;6.40;1.90;;;;;23.10;101565.00;;;;4992343;28;20229;-71
2022/06/02 12:08:42;;;;;;;3.30;2.10;;;;;23.60;101577.00;;;;4995396;28;20225;-70
2022/06/02 12:11:47;;;;;;;2.37;2.10;;;;;23.70;101566.00;;;;4995062;28;20237;-72
2022/06/02 12:15:01;;;;;;;3.00;2.53;;;;;23.40;101572.00;;;;4999608;28;20225;-70
2022/06/02 12:18:14;;;;;;;2.33;2.10;;;;;23.60;101572.00;;;;5000670;28;20250;-71
2022/06/02 12:21:22;;;;;;;4.20;2.07;;;;;24.00;101570.00;;;;4997270;28;20245;-71
2022/06/02 12:24:33;;;;;;;2.40;2.20;;;;;23.90;101576.00;;;;4996405;28;20301;-71
2022/06/02 12:27:44;;;;;;;2.30;2.03;;;;;22.60;101567.00;;;;4998031;28;20330;-70
2022/06/02 12:30:48;;;;;;;3.57;2.00;;;;;22.00;101574.00;;;;4991762;28;20242;-68
2022/06/02 12:33:57;;;;;;;2.73;1.70;;;;;21.70;101579.00;;;;5002041;28;20234;-70
2022/06/02 12:37:06;;;;;;;2.77;2.00;;;;;21.90;101576.00;;;;5000297;28;20378;-72
2022/06/02 12:40:14;;;;;;;2.87;2.00;;;;;22.20;101582.00;;;;5001031;28;20319;-70
2022/06/02 12:43:18;;;;;;;3.23;1.90;;;;;22.60;101573.00;;;;4988512;28;20308;-71
2022/06/02 12:46:32;;;;;;;1.77;1.67;;;;;23.40;101569.00;;;;4995213;28;20277;-72
2022/06/02 12:49:58;;;;;;;2.30;2.00;;;;;23.70;101569.00;;;;4967248;28;20233;-70
2022/06/02 12:53:14;;;;;;;6.33;1.83;;;;;24.30;101574.00;;;;4999604;28;20262;-72
2022/06/02 12:56:43;;;;;;;4.03;2.03;;;;;24.20;101570.00;;;;4994171;28;20337;-71
2022/06/02 13:00:17;;;;;;;1.90;1.80;;;;;22.90;101574.00;;;;4997601;28;20289;-71
2022/06/02 13:03:33;;;;;;;2.93;2.07;;;;;22.80;101571.00;;;;4967652;28;20714;-72
2022/06/02 13:06:59;;;;;;;2.00;1.77;;;;;23.60;101561.00;;;;5004871;28;20600;-72
2022/06/02 13:10:10;;;;;;;1.70;1.60;;;;;23.90;101563.00;;;;4978126;28;20292;-70
2022/06/02 13:13:34;;;;;;;1.43;1.33;;;;;24.30;101563.00;;;;5005418;28;20248;-70
2022/06/02 13:16:37;;;;;;;2.13;1.50;;;;;24.80;101566.00;;;;4993918;28;20237;-71
2022/06/02 13:19:46;;;;;;;2.17;1.50;;;;;25.20;101551.00;;;;5002403;28;20891;-70
2022/06/02 13:23:03;;;;;;;1.60;1.50;;;;;25.40;101560.00;;;;4995231;28;20245;-71
2022/06/02 13:26:26;;;;;;;1.50;1.30;;;;;25.40;101567.00;;;;5007083;28;20314;-72
2022/06/02 13:29:50;;;;;;;2.17;1.53;;;;;25.70;101567.00;;;;4961598;28;20233;-72
2022/06/02 13:33:07;;;;;;;1.77;1.20;;;;;25.10;101560.00;;;;4976577;28;20253;-70
2022/06/02 13:36:19;;;;;;;2.33;1.40;;;;;24.30;101562.00;;;;5005215;28;20230;-71
2022/06/02 13:39:49;;;;;;;3.40;1.70;;;;;24.30;101554.00;;;;4997189;28;20225;-70
2022/06/02 13:43:20;;;;;;;1.37;1.27;;;;;25.00;101554.00;;;;5001206;28;20228;-72
2022/06/02 13:46:36;;;;;;;1.70;1.60;;;;;25.40;101547.00;;;;4980495;28;20385;-71
2022/06/02 13:49:57;;;;;;;1.87;1.50;;;;;25.90;101544.00;;;;5003332;28;20226;-70
2022/06/02 13:53:14;;;;;;;2.43;1.40;;;;;26.30;101548.00;;;;5004165;28;20257;-71
2022/06/02 13:59:41;;;;;;;2.33;1.58;;;;;26.30;101545.00;;;;5004225;28;21021;-70
2022/06/02 14:02:47;;;;;;;3.05;1.92;;;;;26.90;101546.00;;;;5006164;28;20345;-70
2022/06/02 14:06:09;;;;;;;1.85;1.58;;;;;27.10;101542.00;;;;5007363;28;20233;-71
2022/06/02 14:09:31;;;;;;;2.08;1.63;;;;;27.40;101545.00;;;;4945728;28;20228;-70
2022/06/02 14:12:37;;;;;;;2.40;1.92;;;;;26.90;101542.00;;;;4942519;28;20232;-71
2022/06/02 14:15:39;;;;;;;1.90;1.70;;;;;26.00;101530.00;;;;5002276;28;20230;-68
2022/06/02 14:18:45;;;;;;;1.52;1.42;;;;;27.10;101542.00;;;;4999782;28;20363;-71
2022/06/02 14:21:49;;;;;;;2.30;2.10;;;;;29.10;101539.00;;;;5004414;28;20241;-70
2022/06/02 14:24:43;;;;;;;2.50;2.30;;;;;30.10;101543.00;;;;5002296;28;20624;-69
2022/06/02 14:27:44;;;;;;;3.80;2.10;;;;;31.40;101547.00;;;;5005945;28;20233;-69
2022/06/02 14:30:40;;;;;;;2.40;2.20;;;;;32.50;101543.00;;;;5000835;28;20230;-68
2022/06/02 14:33:31;;;;;;;3.50;2.30;;;;;32.80;101555.00;;;;5004460;28;20230;-71
2022/06/02 14:36:29;;;;;;;3.10;2.28;;;;;32.80;101552.00;;;;5000776;28;20281;-68
2022/06/02 14:39:28;;;;;;;2.95;2.17;;;;;33.20;101549.00;;;;5001067;28;20600;-68
2022/06/02 14:43:07;;;;;;;2.63;2.38;;;;;33.80;101549.00;;;;5001290;28;20790;-69
2022/06/02 14:46:12;;;;;;;2.17;2.03;;;;;34.10;101548.00;;;;5004714;28;20261;-68
2022/06/02 14:49:20;;;;;;;2.78;2.00;;;;;34.30;101561.00;;;;5004600;28;20250;-69
2022/06/02 14:52:24;;;;;;;2.63;2.10;;;;;34.10;101557.00;;;;5003617;28;20246;-68
2022/06/02 14:55:17;;;;;;;1.95;1.80;;;;;34.70;101549.00;;;;5003204;28;20277;-67
2022/06/02 14:58:15;;;;;;;2.17;1.70;;;;;204.60;224519.00;;;;4998696;28;20231;-65
2022/06/02 15:01:08;;;;;;;1.90;1.70;;;;;204.60;224519.00;;;;5005473;28;20241;-68
2022/06/02 15:04:30;;;;;;;1.98;1.70;;;;;204.60;224519.00;;;;5005665;28;20608;-69
2022/06/02 15:07:33;;;;;;;2.83;1.83;;;;;204.60;224519.00;;;;4992466;28;20234;-67
2022/06/02 15:10:27;;;;;;;1.70;1.60;;;;;204.60;224519.00;;;;4996445;28;20233;-70
2022/06/02 15:13:33;;;;;;;2.20;1.95;;;;;204.60;224519.00;;;;4999642;28;20418;-69
2022/06/02 15:17:06;;;;;;;1.90;1.80;;;;;204.60;224519.00;;;;4995468;28;20230;-68
2022/06/02 15:20:18;;;;;;;1.63;1.52;;;;;204.60;224519.00;;;;4998068;28;20226;-69
2022/06/02 15:23:57;;;;;;;1.73;1.63;;;;;204.60;224519.00;;;;4999050;28;20231;-69
2022/06/02 15:27:03;;;;;;;2.35;2.15;;;;;204.60;224519.00;;;;5002112;28;20305;-69
2022/06/02 15:30:32;;;;;;;1.85;1.75;;;;;204.60;224519.00;;;;5003014;28;20285;-69
2022/06/02 15:33:47;;;;;;;3.25;1.65;;;;;204.60;224519.00;;;;4990468;28;20229;-64